createdAt,value
2022-10-23T00:01:29.534Z,13.14
2022-10-23T00:04:32.489Z,13.21
2022-10-23T00:07:35.183Z,13.18
2022-10-23T00:10:41.611Z,13.07
2022-10-23T00:13:45.319Z,12.96
2022-10-23T00:16:48.387Z,12.90
2022-10-23T00:19:51.960Z,13.05
2022-10-23T00:22:54.943Z,13.03
2022-10-23T00:25:58.023Z,13.23
2022-10-23T00:29:00.812Z,13.18
2022-10-23T00:32:03.662Z,13.20
2022-10-23T00:35:06.781Z,13.23
2022-10-23T00:38:10.476Z,13.31
2022-10-23T00:41:24.048Z,13.13
2022-10-23T00:44:29.854Z,13.17
2022-10-23T00:47:32.751Z,13.20
2022-10-23T00:50:36.399Z,13.33
2022-10-23T00:53:39.806Z,13.25
2022-10-23T00:56:44.724Z,13.46
2022-10-23T00:59:47.628Z,13.46
2022-10-23T01:02:51.923Z,13.55
2022-10-23T01:06:19.070Z,13.41
2022-10-23T01:09:39.465Z,13.52
2022-10-23T01:12:49.371Z,13.51
2022-10-23T01:16:10.471Z,13.51
2022-10-23T01:19:31.181Z,13.52
2022-10-23T01:22:56.304Z,13.57
2022-10-23T01:26:20.462Z,13.50
2022-10-23T01:29:43.655Z,13.60
2022-10-23T01:32:56.581Z,13.39
2022-10-23T01:36:04.999Z,13.10
2022-10-23T01:39:23.570Z,13.14
2022-10-23T01:42:32.012Z,12.95
2022-10-23T01:45:45.238Z,12.78
2022-10-23T01:48:55.058Z,12.66
2022-10-23T01:52:02.316Z,12.58
2022-10-23T01:55:07.467Z,12.59
2022-10-23T01:58:12.587Z,12.45
2022-10-23T02:01:20.206Z,12.43
2022-10-23T02:04:34.377Z,12.34
2022-10-23T02:07:37.611Z,12.24
2022-10-23T02:10:40.446Z,12.25
2022-10-23T02:13:48.165Z,12.25
2022-10-23T02:16:57.975Z,12.26
2022-10-23T02:20:13.731Z,12.36
2022-10-23T02:23:26.679Z,12.43
2022-10-23T02:26:43.889Z,12.45
2022-10-23T02:29:53.947Z,12.62
2022-10-23T02:32:58.739Z,12.71
2022-10-23T02:36:02.102Z,12.70
2022-10-23T02:39:05.804Z,12.85
2022-10-23T02:42:22.848Z,12.97
2022-10-23T02:45:44.520Z,13.06
2022-10-23T02:49:18.539Z,13.12
2022-10-23T02:52:38.063Z,13.09
2022-10-23T02:56:00.437Z,13.15
2022-10-23T02:59:27.905Z,13.10
2022-10-23T03:02:37.754Z,13.10
2022-10-23T03:05:44.934Z,13.08
2022-10-23T03:08:54.400Z,13.05
2022-10-23T03:11:57.244Z,12.97
2022-10-23T03:15:00.239Z,12.95
2022-10-23T03:18:03.091Z,12.89
2022-10-23T03:21:05.937Z,12.89
2022-10-23T03:24:09.789Z,12.78
2022-10-23T03:27:19.131Z,12.65
2022-10-23T03:30:22.088Z,12.56
2022-10-23T03:33:30.632Z,12.56
2022-10-23T03:36:41.910Z,12.67
2022-10-23T03:39:46.011Z,12.72
2022-10-23T03:42:48.771Z,12.78
2022-10-23T03:45:57.055Z,12.81
2022-10-23T03:49:01.803Z,12.89
2022-10-23T03:52:05.047Z,12.92
2022-10-23T03:55:08.524Z,12.99
2022-10-23T03:58:12.620Z,12.96
2022-10-23T04:01:15.573Z,12.99
2022-10-23T04:04:18.647Z,13.02
2022-10-23T04:07:21.514Z,13.11
2022-10-23T04:10:25.533Z,13.20
2022-10-23T04:13:28.266Z,13.19
2022-10-23T04:16:31.106Z,13.21
2022-10-23T04:19:35.863Z,13.14
2022-10-23T04:22:38.668Z,13.03
2022-10-23T04:25:42.220Z,13.02
2022-10-23T04:28:45.044Z,13.01
2022-10-23T04:31:47.738Z,13.01
2022-10-23T04:34:52.303Z,13.06
2022-10-23T04:37:55.134Z,13.05
2022-10-23T04:40:59.375Z,12.96
2022-10-23T04:44:02.119Z,12.89
2022-10-23T04:47:04.991Z,12.93
2022-10-23T04:50:10.320Z,12.98
2022-10-23T04:53:51.642Z,13.00
2022-10-23T04:57:12.765Z,13.01
2022-10-23T05:00:35.442Z,13.01
2022-10-23T05:03:38.946Z,13.10
2022-10-23T05:06:41.724Z,13.11
2022-10-23T05:09:52.647Z,13.17
2022-10-23T05:13:13.535Z,13.14
2022-10-23T05:16:40.786Z,13.17
2022-10-23T05:19:51.799Z,13.14
2022-10-23T05:22:58.410Z,13.16
2022-10-23T05:26:03.412Z,13.15
2022-10-23T05:29:07.474Z,13.09
2022-10-23T05:32:14.065Z,13.19
2022-10-23T05:35:21.899Z,13.21
2022-10-23T05:38:27.937Z,13.32
2022-10-23T05:41:31.472Z,13.35
2022-10-23T05:44:35.738Z,13.30
2022-10-23T05:47:45.573Z,13.31
2022-10-23T05:51:09.456Z,13.42
2022-10-23T05:54:21.819Z,13.38
2022-10-23T05:57:35.682Z,13.31
2022-10-23T06:00:42.476Z,13.29
2022-10-23T06:04:05.963Z,13.28
2022-10-23T06:07:37.807Z,13.11
2022-10-23T06:10:42.540Z,13.31
2022-10-23T06:13:48.572Z,13.25
2022-10-23T06:16:54.447Z,13.15
2022-10-23T06:20:03.667Z,13.18
2022-10-23T06:23:11.690Z,13.29
2022-10-23T06:26:33.558Z,13.26
2022-10-23T06:29:45.302Z,13.48
2022-10-23T06:32:48.035Z,13.33
2022-10-23T06:35:51.508Z,13.53
2022-10-23T06:38:56.425Z,13.51
2022-10-23T06:42:07.944Z,13.70
2022-10-23T06:45:30.263Z,13.86
2022-10-23T06:48:50.938Z,13.92
2022-10-23T06:52:00.411Z,13.75
2022-10-23T06:55:04.383Z,13.76
2022-10-23T06:58:11.125Z,13.72
2022-10-23T07:01:30.133Z,13.87
2022-10-23T07:04:33.030Z,14.11
2022-10-23T07:07:37.491Z,14.16
2022-10-23T07:10:43.134Z,14.10
2022-10-23T07:13:46.791Z,14.19
2022-10-23T07:16:52.318Z,14.21
2022-10-23T07:19:55.855Z,14.17
2022-10-23T07:22:59.467Z,14.34
2022-10-23T07:26:11.624Z,14.46
2022-10-23T07:29:14.527Z,14.76
2022-10-23T07:32:19.758Z,15.02
2022-10-23T07:35:41.565Z,15.12
2022-10-23T07:38:51.329Z,14.99
2022-10-23T07:41:54.212Z,14.95
2022-10-23T07:44:56.988Z,15.10
2022-10-23T07:47:59.678Z,15.02
2022-10-23T07:51:14.612Z,14.93
2022-10-23T07:54:23.247Z,14.51
2022-10-23T07:57:44.874Z,14.54
2022-10-23T08:01:04.821Z,14.52
2022-10-23T08:04:11.790Z,14.55
2022-10-23T08:07:24.348Z,15.03
2022-10-23T08:10:30.398Z,15.07
2022-10-23T08:13:35.181Z,15.10
2022-10-23T08:16:41.557Z,15.08
2022-10-23T08:20:11.185Z,14.72
2022-10-23T08:23:19.862Z,15.09
2022-10-23T08:26:24.805Z,15.12
2022-10-23T08:29:27.694Z,15.39
2022-10-23T08:32:33.565Z,15.18
2022-10-23T08:35:38.917Z,15.29
2022-10-23T08:38:42.677Z,15.10
2022-10-23T08:41:50.859Z,15.22
2022-10-23T08:45:05.162Z,15.35
2022-10-23T08:48:40.388Z,14.93
2022-10-23T08:52:14.429Z,15.05
2022-10-23T08:55:24.155Z,14.99
2022-10-23T08:58:50.042Z,15.22
2022-10-23T09:02:00.492Z,15.23
2022-10-23T09:05:03.610Z,15.32
2022-10-23T09:08:38.856Z,15.43
2022-10-23T09:11:55.669Z,15.38
2022-10-23T09:15:04.701Z,15.59
2022-10-23T09:18:16.231Z,15.43
2022-10-23T09:21:19.282Z,15.43
2022-10-23T09:24:24.414Z,15.89
2022-10-23T09:27:27.260Z,15.66
2022-10-23T09:30:37.295Z,15.40
2022-10-23T09:33:40.665Z,15.53
2022-10-23T09:36:50.515Z,15.48
2022-10-23T09:40:12.663Z,15.05
2022-10-23T09:43:18.958Z,15.08
2022-10-23T09:46:21.685Z,15.11
2022-10-23T09:49:30.200Z,15.53
2022-10-23T09:52:37.590Z,15.77
2022-10-23T09:55:40.403Z,16.06
2022-10-23T09:58:57.043Z,16.06
2022-10-23T10:02:04.726Z,16.25
2022-10-23T10:05:34.700Z,16.17
2022-10-23T10:08:57.098Z,15.96
2022-10-23T10:12:17.685Z,15.90
2022-10-23T10:15:32.544Z,15.65
2022-10-23T10:18:56.951Z,15.59
2022-10-23T10:22:26.354Z,15.65
2022-10-23T10:25:56.178Z,15.84
2022-10-23T10:29:14.107Z,15.76
2022-10-23T10:32:24.923Z,16.04
2022-10-23T10:35:37.457Z,16.23
2022-10-23T10:38:54.860Z,16.07
2022-10-23T10:42:12.974Z,16.67
2022-10-23T10:45:15.603Z,16.67
2022-10-23T10:48:47.694Z,17.32
2022-10-23T10:52:08.332Z,17.23
2022-10-23T10:55:22.526Z,17.29
2022-10-23T10:58:40.696Z,17.09
2022-10-23T11:01:51.063Z,16.87
2022-10-23T11:05:34.881Z,17.19
2022-10-23T11:08:56.305Z,17.60
2022-10-23T11:12:05.687Z,17.65
2022-10-23T11:15:34.740Z,18.15
2022-10-23T11:18:41.038Z,18.09
2022-10-23T11:21:46.505Z,18.20
2022-10-23T11:25:12.393Z,18.52
2022-10-23T11:28:31.467Z,18.98
2022-10-23T11:32:06.834Z,18.85
2022-10-23T11:35:18.602Z,18.83
2022-10-23T11:38:34.770Z,18.20
2022-10-23T11:41:37.643Z,18.13
2022-10-23T11:44:46.089Z,18.07
2022-10-23T11:47:58.872Z,17.65
2022-10-23T11:51:05.244Z,17.06
2022-10-23T11:54:17.287Z,17.00
2022-10-23T11:57:20.144Z,16.75
2022-10-23T12:00:24.231Z,16.81
2022-10-23T12:04:18.531Z,16.48
2022-10-23T12:07:30.092Z,16.72
2022-10-23T12:10:44.728Z,17.25
2022-10-23T12:13:47.536Z,17.35
2022-10-23T12:16:50.453Z,18.12
2022-10-23T12:19:56.009Z,18.37
2022-10-23T12:23:01.666Z,18.18
2022-10-23T12:26:23.315Z,18.13
2022-10-23T12:29:55.120Z,18.37
2022-10-23T12:33:39.893Z,17.81
2022-10-23T12:37:18.865Z,18.13
2022-10-23T12:40:22.669Z,18.45
2022-10-23T12:43:38.122Z,18.29
2022-10-23T12:46:43.578Z,18.35
2022-10-23T12:49:50.909Z,17.99
2022-10-23T12:52:57.333Z,17.63
2022-10-23T12:56:05.039Z,17.38
2022-10-23T12:59:16.251Z,17.53
2022-10-23T13:02:26.874Z,17.56
2022-10-23T13:05:32.258Z,17.71
2022-10-23T13:08:41.911Z,17.76
2022-10-23T13:12:09.134Z,17.87
2022-10-23T13:15:12.193Z,17.99
2022-10-23T13:18:16.590Z,17.91
2022-10-23T13:21:28.827Z,18.17
2022-10-23T13:24:32.168Z,18.13
2022-10-23T13:27:35.081Z,17.79
2022-10-23T13:30:43.493Z,17.93
2022-10-23T13:33:49.300Z,18.11
2022-10-23T13:36:58.982Z,18.08
2022-10-23T13:40:10.615Z,18.10
2022-10-23T13:43:16.614Z,17.77
2022-10-23T13:46:23.236Z,18.14
2022-10-23T13:49:25.985Z,18.34
2022-10-23T13:52:28.792Z,18.26
2022-10-23T13:55:31.914Z,18.12
2022-10-23T13:58:34.912Z,17.97
2022-10-23T14:01:38.062Z,18.01
2022-10-23T14:04:41.068Z,17.91
2022-10-23T14:07:44.057Z,17.78
2022-10-23T14:10:47.620Z,17.69
2022-10-23T14:13:50.901Z,17.67
2022-10-23T14:16:54.852Z,17.57
2022-10-23T14:19:57.607Z,17.72
2022-10-23T14:23:00.365Z,17.83
2022-10-23T14:26:07.542Z,17.70
2022-10-23T14:29:18.426Z,17.42
2022-10-23T14:32:24.243Z,17.62
2022-10-23T14:35:27.028Z,17.98
2022-10-23T14:38:30.057Z,18.00
2022-10-23T14:41:32.932Z,17.80
2022-10-23T14:44:35.766Z,17.68
2022-10-23T14:47:38.627Z,17.58
2022-10-23T14:50:47.172Z,17.52
2022-10-23T14:53:58.704Z,17.38
2022-10-23T14:57:02.991Z,17.23
2022-10-23T15:00:07.265Z,17.38
2022-10-23T15:03:10.316Z,17.14
2022-10-23T15:06:17.527Z,17.29
2022-10-23T15:09:21.543Z,17.25
2022-10-23T15:12:24.698Z,17.01
2022-10-23T15:15:27.670Z,16.76
2022-10-23T15:18:30.649Z,16.61
2022-10-23T15:21:33.436Z,16.61
2022-10-23T15:24:36.222Z,16.66
2022-10-23T15:27:39.170Z,16.61
2022-10-23T15:30:44.175Z,16.53
2022-10-23T15:33:50.167Z,16.44
2022-10-23T15:36:54.208Z,16.46
2022-10-23T15:39:59.716Z,16.42
2022-10-23T15:43:05.375Z,16.50
2022-10-23T15:46:08.144Z,16.34
2022-10-23T15:49:11.570Z,16.17
2022-10-23T15:52:14.738Z,16.07
2022-10-23T15:55:17.557Z,16.00
2022-10-23T15:58:20.431Z,16.07
2022-10-23T16:01:23.696Z,16.10
2022-10-23T16:04:28.617Z,15.94
2022-10-23T16:07:31.625Z,15.80
2022-10-23T16:10:40.414Z,15.78
2022-10-23T16:13:43.865Z,15.81
2022-10-23T16:16:46.759Z,15.87
2022-10-23T16:19:49.539Z,15.89
2022-10-23T16:22:52.368Z,15.75
2022-10-23T16:25:55.555Z,15.57
2022-10-23T16:29:02.259Z,15.52
2022-10-23T16:32:05.206Z,15.37
2022-10-23T16:35:11.022Z,15.30
2022-10-23T16:38:28.787Z,15.19
2022-10-23T16:41:32.535Z,15.12
2022-10-23T16:44:37.339Z,15.09
2022-10-23T16:47:42.060Z,15.09
2022-10-23T16:50:44.912Z,15.05
2022-10-23T16:53:48.698Z,15.17
2022-10-23T16:56:51.794Z,15.16
2022-10-23T16:59:55.111Z,15.15
2022-10-23T17:02:58.073Z,15.02
2022-10-23T17:06:02.830Z,14.92
2022-10-23T17:09:08.382Z,14.80
2022-10-23T17:12:11.433Z,14.75
2022-10-23T17:15:14.344Z,14.67
2022-10-23T17:18:17.839Z,14.57
2022-10-23T17:21:22.447Z,14.46
2022-10-23T17:24:25.436Z,14.38
2022-10-23T17:27:28.705Z,14.29
2022-10-23T17:30:31.548Z,14.27
2022-10-23T17:33:34.579Z,14.22
2022-10-23T17:36:40.642Z,14.19
2022-10-23T17:39:43.998Z,14.13
2022-10-23T17:42:47.177Z,14.10
2022-10-23T17:45:50.266Z,14.09
2022-10-23T17:48:56.386Z,13.99
2022-10-23T17:51:59.594Z,14.01
2022-10-23T17:55:02.559Z,13.97
2022-10-23T17:58:06.633Z,13.95
2022-10-23T18:01:12.138Z,13.89
2022-10-23T18:04:16.638Z,13.86
2022-10-23T18:07:20.091Z,13.71
2022-10-23T18:10:23.090Z,13.72
2022-10-23T18:13:26.186Z,13.66
2022-10-23T18:16:29.677Z,13.65
2022-10-23T18:19:32.469Z,13.61
2022-10-23T18:22:35.691Z,13.59
2022-10-23T18:25:43.222Z,13.54
2022-10-23T18:28:47.891Z,13.54
2022-10-23T18:31:50.965Z,13.47
2022-10-23T18:34:54.280Z,13.43
2022-10-23T18:37:58.166Z,13.42
2022-10-23T18:41:01.665Z,13.41
2022-10-23T18:44:05.092Z,13.43
2022-10-23T18:47:08.411Z,13.35
2022-10-23T18:50:11.913Z,13.36
2022-10-23T18:53:15.022Z,13.34
2022-10-23T18:56:23.597Z,13.31
2022-10-23T18:59:27.103Z,13.22
2022-10-23T19:02:30.414Z,13.13
2022-10-23T19:05:33.378Z,13.10
2022-10-23T19:08:38.017Z,13.11
2022-10-23T19:11:41.833Z,13.10
2022-10-23T19:14:46.059Z,13.13
2022-10-23T19:17:55.110Z,13.06
2022-10-23T19:20:59.597Z,13.01
2022-10-23T19:24:07.783Z,13.02
2022-10-23T19:27:11.164Z,13.02
2022-10-23T19:30:21.900Z,12.97
2022-10-23T19:33:25.837Z,12.99
2022-10-23T19:36:28.705Z,12.98
2022-10-23T19:39:31.930Z,12.90
2022-10-23T19:42:40.332Z,12.92
2022-10-23T19:45:43.426Z,12.91
2022-10-23T19:48:46.956Z,12.80
2022-10-23T19:51:51.486Z,12.85
2022-10-23T19:54:54.940Z,12.84
2022-10-23T19:57:58.046Z,12.85
2022-10-23T20:01:13.738Z,12.92
2022-10-23T20:04:18.463Z,13.01
2022-10-23T20:07:21.596Z,12.96
2022-10-23T20:10:26.001Z,12.94
2022-10-23T20:13:29.065Z,12.92
2022-10-23T20:16:37.710Z,12.89
2022-10-23T20:19:40.595Z,12.78
2022-10-23T20:22:44.214Z,12.86
2022-10-23T20:25:47.561Z,12.94
2022-10-23T20:28:54.110Z,12.89
2022-10-23T20:31:57.383Z,12.80
2022-10-23T20:35:00.828Z,12.84
2022-10-23T20:38:03.860Z,12.71
2022-10-23T20:41:07.141Z,12.75
2022-10-23T20:47:19.868Z,12.69
2022-10-23T20:50:23.994Z,12.63
2022-10-23T20:53:26.775Z,12.61
2022-10-23T20:56:35.607Z,12.69
2022-10-23T20:59:38.550Z,12.54
2022-10-23T21:02:41.564Z,12.53
2022-10-23T21:05:45.009Z,12.43
2022-10-23T21:08:47.863Z,12.39
2022-10-23T21:11:50.981Z,12.32
2022-10-23T21:14:53.908Z,12.27
2022-10-23T21:18:01.526Z,12.28
2022-10-23T21:21:12.568Z,12.17
2022-10-23T21:24:16.879Z,12.15
2022-10-23T21:27:19.955Z,12.11
2022-10-23T21:30:22.736Z,12.13
2022-10-23T21:33:26.174Z,12.11
2022-10-23T21:36:31.067Z,12.09
2022-10-23T21:39:35.055Z,12.10
2022-10-23T21:42:37.910Z,12.00
2022-10-23T21:45:40.776Z,11.92
2022-10-23T21:48:44.208Z,11.91
2022-10-23T21:51:47.547Z,11.97
2022-10-23T21:54:54.062Z,11.92
2022-10-23T21:57:56.911Z,11.94
2022-10-23T22:01:00.766Z,11.87
2022-10-23T22:04:03.767Z,11.83
2022-10-23T22:07:07.632Z,11.80
2022-10-23T22:10:10.631Z,11.83
2022-10-23T22:13:13.410Z,11.79
2022-10-23T22:16:17.139Z,11.86
2022-10-23T22:19:22.091Z,11.78
2022-10-23T22:22:24.904Z,11.81
2022-10-23T22:25:29.239Z,11.81
2022-10-23T22:28:32.230Z,11.73
2022-10-23T22:31:35.929Z,11.71
2022-10-23T22:34:55.381Z,11.61
2022-10-23T22:37:58.210Z,11.57
2022-10-23T22:41:02.544Z,11.62
2022-10-23T22:44:05.460Z,11.62
2022-10-23T22:47:08.303Z,11.60
2022-10-23T22:50:11.136Z,11.55
2022-10-23T22:53:13.885Z,11.55
2022-10-23T22:56:20.607Z,11.47
2022-10-23T22:59:23.511Z,11.49
2022-10-23T23:02:26.607Z,11.50
2022-10-23T23:05:29.460Z,11.43
2022-10-23T23:08:33.552Z,11.47
2022-10-23T23:11:45.759Z,11.43
2022-10-23T23:14:54.979Z,11.44
2022-10-23T23:17:57.982Z,11.38
2022-10-23T23:21:05.240Z,11.32
2022-10-23T23:24:08.302Z,11.35
2022-10-23T23:27:11.070Z,11.35
2022-10-23T23:30:13.917Z,11.34
2022-10-23T23:33:19.565Z,11.34
2022-10-23T23:36:27.726Z,11.28
2022-10-23T23:39:30.575Z,11.16
2022-10-23T23:42:33.361Z,11.13
2022-10-23T23:45:36.059Z,11.18
2022-10-23T23:48:39.391Z,11.10
2022-10-23T23:51:42.332Z,11.18
2022-10-23T23:54:45.075Z,11.09
2022-10-23T23:57:48.004Z,11.04
